sensor_id;sensor_type;location;lat;lon;timestamp;pressure;altitude;pressure_sealevel;temperature;humidity
7584;BME280;3833;41.764;26.204;2023-02-14T00:02:05;100332.94;;;-0.64;100.00
7584;BME280;3833;41.764;26.204;2023-02-14T00:04:32;100315.78;;;-0.81;100.00
7584;BME280;3833;41.764;26.204;2023-02-14T00:07:02;100353.41;;;-0.67;100.00
7584;BME280;3833;41.764;26.204;2023-02-14T00:09:30;100317.44;;;-0.89;100.00
7584;BME280;3833;41.764;26.204;2023-02-14T00:11:57;100244.59;;;-1.45;100.00
7584;BME280;3833;41.764;26.204;2023-02-14T00:14:25;100349.94;;;-0.79;100.00
7584;BME280;3833;41.764;26.204;2023-02-14T00:17:09;100343.16;;;-0.74;100.00
7584;BME280;3833;41.764;26.204;2023-02-14T00:19:36;100318.31;;;-0.86;100.00
7584;BME280;3833;41.764;26.204;2023-02-14T00:22:03;100345.66;;;-0.85;100.00
7584;BME280;3833;41.764;26.204;2023-02-14T00:24:30;100341.41;;;-0.81;100.00
7584;BME280;3833;41.764;26.204;2023-02-14T00:26:58;100345.63;;;-0.88;100.00
7584;BME280;3833;41.764;26.204;2023-02-14T00:29:27;100346.44;;;-0.99;100.00
7584;BME280;3833;41.764;26.204;2023-02-14T00:31:55;100343.88;;;-0.95;100.00
7584;BME280;3833;41.764;26.204;2023-02-14T00:34:22;100346.47;;;-0.89;100.00
7584;BME280;3833;41.764;26.204;2023-02-14T00:36:49;100344.72;;;-0.97;100.00
7584;BME280;3833;41.764;26.204;2023-02-14T00:39:17;100344.81;;;-0.84;100.00
7584;BME280;3833;41.764;26.204;2023-02-14T00:41:44;100224.91;;;-1.52;100.00
7584;BME280;3833;41.764;26.204;2023-02-14T00:44:12;100343.03;;;-0.95;100.00
7584;BME280;3833;41.764;26.204;2023-02-14T00:46:41;100334.41;;;-1.09;100.00
7584;BME280;3833;41.764;26.204;2023-02-14T00:49:08;100296.69;;;-1.37;100.00
7584;BME280;3833;41.764;26.204;2023-02-14T00:51:34;100336.13;;;-1.05;100.00
7584;BME280;3833;41.764;26.204;2023-02-14T00:54:02;100331.94;;;-0.94;100.00
7584;BME280;3833;41.764;26.204;2023-02-14T00:56:29;100332.81;;;-0.92;100.00
7584;BME280;3833;41.764;26.204;2023-02-14T00:58:56;100300.19;;;-1.21;100.00
7584;BME280;3833;41.764;26.204;2023-02-14T01:01:22;100214.56;;;-1.76;100.00
7584;BME280;3833;41.764;26.204;2023-02-14T01:03:51;100335.22;;;-1.19;100.00
7584;BME280;3833;41.764;26.204;2023-02-14T01:06:18;100329.25;;;-1.18;100.00
7584;BME280;3833;41.764;26.204;2023-02-14T01:08:44;100327.53;;;-1.19;100.00
7584;BME280;3833;41.764;26.204;2023-02-14T01:11:13;100321.59;;;-1.15;100.00
7584;BME280;3833;41.764;26.204;2023-02-14T01:13:41;100330.97;;;-1.15;100.00
7584;BME280;3833;41.764;26.204;2023-02-14T01:16:10;100286.38;;;-1.49;100.00
7584;BME280;3833;41.764;26.204;2023-02-14T01:18:37;100234.97;;;-1.85;100.00
7584;BME280;3833;41.764;26.204;2023-02-14T01:21:15;100230.75;;;-1.77;100.00
7584;BME280;3833;41.764;26.204;2023-02-14T01:23:43;100325.00;;;-1.11;100.00
7584;BME280;3833;41.764;26.204;2023-02-14T01:26:11;100309.53;;;-1.29;100.00
7584;BME280;3833;41.764;26.204;2023-02-14T01:28:37;100336.88;;;-1.25;100.00
7584;BME280;3833;41.764;26.204;2023-02-14T01:31:06;100324.00;;;-1.39;100.00
7584;BME280;3833;41.764;26.204;2023-02-14T01:33:33;100289.78;;;-1.50;100.00
7584;BME280;3833;41.764;26.204;2023-02-14T01:36:00;100317.19;;;-1.31;100.00
7584;BME280;3833;41.764;26.204;2023-02-14T01:38:28;100324.13;;;-1.18;100.00
7584;BME280;3833;41.764;26.204;2023-02-14T01:40:55;100193.94;;;-1.94;100.00
7584;BME280;3833;41.764;26.204;2023-02-14T01:43:22;100305.25;;;-1.29;100.00
7584;BME280;3833;41.764;26.204;2023-02-14T01:45:49;100326.75;;;-1.07;100.00
7584;BME280;3833;41.764;26.204;2023-02-14T01:48:17;100315.59;;;-1.11;100.00
7584;BME280;3833;41.764;26.204;2023-02-14T01:50:47;100317.31;;;-1.10;100.00
7584;BME280;3833;41.764;26.204;2023-02-14T01:53:18;100311.31;;;-1.21;100.00
7584;BME280;3833;41.764;26.204;2023-02-14T01:55:51;100310.44;;;-1.23;100.00
7584;BME280;3833;41.764;26.204;2023-02-14T01:58:23;100313.00;;;-1.23;100.00
7584;BME280;3833;41.764;26.204;2023-02-14T02:00:50;100308.72;;;-1.24;100.00
7584;BME280;3833;41.764;26.204;2023-02-14T02:03:26;100291.56;;;-1.40;100.00
7584;BME280;3833;41.764;26.204;2023-02-14T02:05:58;100253.03;;;-1.59;100.00
7584;BME280;3833;41.764;26.204;2023-02-14T02:08:27;100206.94;;;-1.68;100.00
7584;BME280;3833;41.764;26.204;2023-02-14T02:10:55;100296.00;;;-1.06;100.00
7584;BME280;3833;41.764;26.204;2023-02-14T02:13:22;100300.25;;;-1.14;100.00
7584;BME280;3833;41.764;26.204;2023-02-14T02:15:55;100267.66;;;-1.43;100.00
7584;BME280;3833;41.764;26.204;2023-02-14T02:18:33;100297.59;;;-1.26;100.00
7584;BME280;3833;41.764;26.204;2023-02-14T02:21:19;100293.44;;;-1.07;100.00
7584;BME280;3833;41.764;26.204;2023-02-14T02:24:02;100295.16;;;-1.05;100.00
7584;BME280;3833;41.764;26.204;2023-02-14T02:27:13;100290.88;;;-1.06;100.00
7584;BME280;3833;41.764;26.204;2023-02-14T02:33:00;100285.81;;;-0.97;100.00
7584;BME280;3833;41.764;26.204;2023-02-14T02:35:45;100278.16;;;-0.85;100.00
7584;BME280;3833;41.764;26.204;2023-02-14T02:38:27;100282.41;;;-0.87;100.00
7584;BME280;3833;41.764;26.204;2023-02-14T02:41:03;100232.03;;;-0.94;100.00
7584;BME280;3833;41.764;26.204;2023-02-14T02:43:42;100238.88;;;-0.93;100.00
7584;BME280;3833;41.764;26.204;2023-02-14T02:46:21;100267.13;;;-0.71;100.00
7584;BME280;3833;41.764;26.204;2023-02-14T02:49:13;100265.34;;;-0.81;100.00
7584;BME280;3833;41.764;26.204;2023-02-14T02:52:08;100262.81;;;-0.70;100.00
7584;BME280;3833;41.764;26.204;2023-02-14T02:54:57;100251.72;;;-0.78;100.00
7584;BME280;3833;41.764;26.204;2023-02-14T02:57:31;100256.00;;;-0.77;100.00
7584;BME280;3833;41.764;26.204;2023-02-14T03:00:01;100253.44;;;-0.77;100.00
7584;BME280;3833;41.764;26.204;2023-02-14T03:02:31;100257.69;;;-0.79;100.00
7584;BME280;3833;41.764;26.204;2023-02-14T03:05:19;100256.81;;;-0.86;100.00
7584;BME280;3833;41.764;26.204;2023-02-14T03:07:47;100247.47;;;-0.67;100.00
7584;BME280;3833;41.764;26.204;2023-02-14T03:10:16;100250.88;;;-0.74;100.00
7584;BME280;3833;41.764;26.204;2023-02-14T03:18:52;100230.34;;;-0.80;100.00
7584;BME280;3833;41.764;26.204;2023-02-14T03:21:46;100238.94;;;-0.72;100.00
7584;BME280;3833;41.764;26.204;2023-02-14T03:24:23;100235.50;;;-0.68;100.00
7584;BME280;3833;41.764;26.204;2023-02-14T03:26:56;100233.78;;;-0.69;100.00
7584;BME280;3833;41.764;26.204;2023-02-14T03:29:31;100240.59;;;-0.71;100.00
7584;BME280;3833;41.764;26.204;2023-02-14T03:32:03;100164.44;;;-1.30;100.00
7584;BME280;3833;41.764;26.204;2023-02-14T03:34:40;100218.38;;;-0.87;100.00
7584;BME280;3833;41.764;26.204;2023-02-14T03:37:14;100233.78;;;-0.69;100.00
7584;BME280;3833;41.764;26.204;2023-02-14T03:39:46;100179.91;;;-1.02;100.00
7584;BME280;3833;41.764;26.204;2023-02-14T03:42:21;100241.50;;;-0.72;100.00
7584;BME280;3833;41.764;26.204;2023-02-14T03:44:51;100236.38;;;-0.65;100.00
7584;BME280;3833;41.764;26.204;2023-02-14T03:47:22;100228.66;;;-0.75;100.00
7584;BME280;3833;41.764;26.204;2023-02-14T03:49:54;100224.41;;;-0.67;100.00
7584;BME280;3833;41.764;26.204;2023-02-14T03:52:23;100230.38;;;-0.68;100.00
7584;BME280;3833;41.764;26.204;2023-02-14T03:54:56;100202.13;;;-0.91;100.00
7584;BME280;3833;41.764;26.204;2023-02-14T03:57:26;100226.94;;;-0.82;100.00
7584;BME280;3833;41.764;26.204;2023-02-14T03:59:55;100189.28;;;-1.07;100.00
7584;BME280;3833;41.764;26.204;2023-02-14T04:02:25;100216.69;;;-0.87;100.00
7584;BME280;3833;41.764;26.204;2023-02-14T04:04:54;100223.47;;;-0.90;100.00
7584;BME280;3833;41.764;26.204;2023-02-14T04:07:22;100220.97;;;-0.78;100.00
7584;BME280;3833;41.764;26.204;2023-02-14T04:09:50;100213.25;;;-0.87;100.00
7584;BME280;3833;41.764;26.204;2023-02-14T04:12:19;100218.34;;;-0.99;100.00
7584;BME280;3833;41.764;26.204;2023-02-14T04:14:46;100213.19;;;-1.05;100.00
7584;BME280;3833;41.764;26.204;2023-02-14T04:17:13;100200.41;;;-1.03;100.00
7584;BME280;3833;41.764;26.204;2023-02-14T04:19:57;100207.22;;;-1.01;100.00
7584;BME280;3833;41.764;26.204;2023-02-14T04:22:24;100217.50;;;-0.98;100.00
7584;BME280;3833;41.764;26.204;2023-02-14T04:24:51;100209.72;;;-1.19;100.00
7584;BME280;3833;41.764;26.204;2023-02-14T04:27:19;100210.56;;;-1.23;100.00
7584;BME280;3833;41.764;26.204;2023-02-14T04:29:48;100210.59;;;-1.20;100.00
7584;BME280;3833;41.764;26.204;2023-02-14T04:32:19;100200.28;;;-1.35;100.00
7584;BME280;3833;41.764;26.204;2023-02-14T04:34:47;100209.69;;;-1.25;100.00
7584;BME280;3833;41.764;26.204;2023-02-14T04:37:15;100196.00;;;-1.30;100.00
7584;BME280;3833;41.764;26.204;2023-02-14T04:39:43;100185.81;;;-1.21;100.00
7584;BME280;3833;41.764;26.204;2023-02-14T04:42:10;100128.53;;;-1.48;100.00
7584;BME280;3833;41.764;26.204;2023-02-14T04:44:38;100196.09;;;-1.15;100.00
7584;BME280;3833;41.764;26.204;2023-02-14T04:47:05;100141.38;;;-1.38;100.00
7584;BME280;3833;41.764;26.204;2023-02-14T04:49:33;100198.66;;;-1.06;100.00
7584;BME280;3833;41.764;26.204;2023-02-14T04:52:00;100191.84;;;-1.07;100.00
7584;BME280;3833;41.764;26.204;2023-02-14T04:54:28;100190.06;;;-1.27;100.00
7584;BME280;3833;41.764;26.204;2023-02-14T04:56:54;100186.69;;;-1.17;100.00
7584;BME280;3833;41.764;26.204;2023-02-14T04:59:21;100167.81;;;-1.42;100.00
7584;BME280;3833;41.764;26.204;2023-02-14T05:01:50;100190.91;;;-1.27;100.00
7584;BME280;3833;41.764;26.204;2023-02-14T05:04:17;100144.75;;;-1.54;100.00
7584;BME280;3833;41.764;26.204;2023-02-14T05:06:43;100173.81;;;-1.40;100.00
7584;BME280;3833;41.764;26.204;2023-02-14T05:09:10;100173.91;;;-1.16;100.00
7584;BME280;3833;41.764;26.204;2023-02-14T05:11:37;100170.47;;;-1.09;100.00
7584;BME280;3833;41.764;26.204;2023-02-14T05:14:04;100165.38;;;-1.03;100.00
7584;BME280;3833;41.764;26.204;2023-02-14T05:16:31;100054.31;;;-1.56;100.00
7584;BME280;3833;41.764;26.204;2023-02-14T05:18:59;100150.88;;;-0.98;100.00
7584;BME280;3833;41.764;26.204;2023-02-14T05:21:26;100131.25;;;-0.93;100.00
7584;BME280;3833;41.764;26.204;2023-02-14T05:23:57;100116.75;;;-0.94;100.00
7584;BME280;3833;41.764;26.204;2023-02-14T05:26:24;100150.06;;;-0.79;100.00
7584;BME280;3833;41.764;26.204;2023-02-14T05:28:51;100144.09;;;-0.83;100.00
7584;BME280;3833;41.764;26.204;2023-02-14T05:31:18;100136.41;;;-0.78;100.00
7584;BME280;3833;41.764;26.204;2023-02-14T05:33:45;100141.53;;;-0.81;100.00
7584;BME280;3833;41.764;26.204;2023-02-14T05:36:13;100136.38;;;-0.87;100.00
7584;BME280;3833;41.764;26.204;2023-02-14T05:38:40;100149.22;;;-0.68;100.00
7584;BME280;3833;41.764;26.204;2023-02-14T05:41:07;100109.06;;;-0.85;100.00
7584;BME280;3833;41.764;26.204;2023-02-14T05:43:33;100134.69;;;-0.70;100.00
7584;BME280;3833;41.764;26.204;2023-02-14T05:46:00;100131.28;;;-0.72;100.00
7584;BME280;3833;41.764;26.204;2023-02-14T05:48:27;100136.41;;;-0.63;100.00
7584;BME280;3833;41.764;26.204;2023-02-14T05:50:54;100145.81;;;-0.62;100.00
7584;BME280;3833;41.764;26.204;2023-02-14T05:53:22;100141.53;;;-0.57;100.00
7584;BME280;3833;41.764;26.204;2023-02-14T05:55:49;100138.13;;;-0.44;100.00
7584;BME280;3833;41.764;26.204;2023-02-14T05:58:16;100127.84;;;-0.29;100.00
7584;BME280;3833;41.764;26.204;2023-02-14T06:00:43;100129.56;;;-0.40;100.00
7584;BME280;3833;41.764;26.204;2023-02-14T06:03:09;100129.56;;;-0.37;100.00
7584;BME280;3833;41.764;26.204;2023-02-14T06:05:36;100033.06;;;-0.85;100.00
7584;BME280;3833;41.764;26.204;2023-02-14T06:08:03;100131.28;;;-0.33;100.00
7584;BME280;3833;41.764;26.204;2023-02-14T06:10:31;100128.69;;;-0.24;100.00
7584;BME280;3833;41.764;26.204;2023-02-14T06:12:59;100091.97;;;-0.38;100.00
7584;BME280;3833;41.764;26.204;2023-02-14T06:15:25;100133.78;;;-0.01;100.00
7584;BME280;3833;41.764;26.204;2023-02-14T06:17:53;100137.25;;;-0.09;100.00
7584;BME280;3833;41.764;26.204;2023-02-14T06:20:21;100142.31;;;0.16;100.00
7584;BME280;3833;41.764;26.204;2023-02-14T06:22:49;100137.06;;;0.52;100.00
7584;BME280;3833;41.764;26.204;2023-02-14T06:25:16;100139.19;;;2.27;100.00
7584;BME280;3833;41.764;26.204;2023-02-14T06:27:44;100152.25;;;6.29;100.00
7584;BME280;3833;41.764;26.204;2023-02-14T06:30:12;100158.00;;;8.82;82.33
7584;BME280;3833;41.764;26.204;2023-02-14T06:32:39;100143.84;;;10.38;72.06
7584;BME280;3833;41.764;26.204;2023-02-14T06:35:07;100137.63;;;9.58;64.69
7584;BME280;3833;41.764;26.204;2023-02-14T06:37:34;100132.75;;;10.53;62.63
7584;BME280;3833;41.764;26.204;2023-02-14T06:40:03;100128.09;;;9.59;63.62
7584;BME280;3833;41.764;26.204;2023-02-14T06:42:30;100129.59;;;9.86;61.20
7584;BME280;3833;41.764;26.204;2023-02-14T06:44:58;100059.34;;;8.97;63.26
7584;BME280;3833;41.764;26.204;2023-02-14T06:47:26;100124.50;;;11.73;58.30
7584;BME280;3833;41.764;26.204;2023-02-14T06:49:53;100113.31;;;11.34;58.44
7584;BME280;3833;41.764;26.204;2023-02-14T06:52:20;100119.25;;;12.91;53.22
7584;BME280;3833;41.764;26.204;2023-02-14T06:54:47;100117.97;;;14.91;50.64
7584;BME280;3833;41.764;26.204;2023-02-14T06:57:14;100117.28;;;14.17;48.66
7584;BME280;3833;41.764;26.204;2023-02-14T06:59:40;100107.63;;;11.97;51.47
7584;BME280;3833;41.764;26.204;2023-02-14T07:02:10;100127.09;;;16.46;46.25
7584;BME280;3833;41.764;26.204;2023-02-14T07:04:36;100124.03;;;15.48;43.64
7584;BME280;3833;41.764;26.204;2023-02-14T07:07:03;100133.63;;;15.21;44.18
7584;BME280;3833;41.764;26.204;2023-02-14T07:09:30;100127.03;;;14.44;44.32
7584;BME280;3833;41.764;26.204;2023-02-14T07:11:57;100123.88;;;12.20;47.20
7584;BME280;3833;41.764;26.204;2023-02-14T07:14:24;100121.69;;;14.46;44.96
7584;BME280;3833;41.764;26.204;2023-02-14T07:16:51;100124.94;;;12.82;46.25
7584;BME280;3833;41.764;26.204;2023-02-14T07:19:19;100105.69;;;15.46;43.78
7584;BME280;3833;41.764;26.204;2023-02-14T07:21:46;100114.56;;;15.31;41.46
7584;BME280;3833;41.764;26.204;2023-02-14T07:24:12;100133.00;;;15.31;43.32
7584;BME280;3833;41.764;26.204;2023-02-14T07:26:39;100124.69;;;15.51;42.15
7584;BME280;3833;41.764;26.204;2023-02-14T07:29:06;100121.69;;;15.96;42.21
7584;BME280;3833;41.764;26.204;2023-02-14T07:31:33;100123.19;;;16.88;39.77
7584;BME280;3833;41.764;26.204;2023-02-14T07:34:00;100133.94;;;16.85;39.39
7584;BME280;3833;41.764;26.204;2023-02-14T07:36:28;100121.81;;;15.00;41.62
7584;BME280;3833;41.764;26.204;2023-02-14T07:38:55;100125.84;;;16.88;40.34
7584;BME280;3833;41.764;26.204;2023-02-14T07:41:22;100131.69;;;15.91;40.88
7584;BME280;3833;41.764;26.204;2023-02-14T07:43:49;100129.72;;;16.07;41.18
7584;BME280;3833;41.764;26.204;2023-02-14T07:46:16;100108.75;;;15.12;40.63
7584;BME280;3833;41.764;26.204;2023-02-14T07:48:43;100127.44;;;14.66;41.59
7584;BME280;3833;41.764;26.204;2023-02-14T07:51:10;100119.84;;;14.03;41.54
7584;BME280;3833;41.764;26.204;2023-02-14T07:53:38;100101.59;;;15.14;41.31
7584;BME280;3833;41.764;26.204;2023-02-14T07:56:05;100115.34;;;14.77;41.81
7584;BME280;3833;41.764;26.204;2023-02-14T07:58:32;100112.56;;;16.77;39.88
7584;BME280;3833;41.764;26.204;2023-02-14T08:00:59;100102.06;;;17.13;37.83
7584;BME280;3833;41.764;26.204;2023-02-14T08:03:26;100101.56;;;16.34;37.48
7584;BME280;3833;41.764;26.204;2023-02-14T08:05:53;100092.22;;;17.64;37.54
7584;BME280;3833;41.764;26.204;2023-02-14T08:08:24;100090.81;;;16.86;38.24
7584;BME280;3833;41.764;26.204;2023-02-14T08:10:52;100097.06;;;15.97;38.14
7584;BME280;3833;41.764;26.204;2023-02-14T08:13:20;100085.47;;;16.12;38.90
7584;BME280;3833;41.764;26.204;2023-02-14T08:15:46;100112.00;;;16.48;37.66
7584;BME280;3833;41.764;26.204;2023-02-14T08:18:33;100111.41;;;16.69;37.69
7584;BME280;3833;41.764;26.204;2023-02-14T08:21:00;100098.94;;;17.44;35.14
7584;BME280;3833;41.764;26.204;2023-02-14T08:23:27;100110.78;;;18.99;35.20
7584;BME280;3833;41.764;26.204;2023-02-14T08:25:56;100112.19;;;19.58;34.13
7584;BME280;3833;41.764;26.204;2023-02-14T08:28:23;100113.44;;;18.09;34.74
7584;BME280;3833;41.764;26.204;2023-02-14T08:30:51;100118.88;;;16.63;37.75
7584;BME280;3833;41.764;26.204;2023-02-14T08:33:18;100118.16;;;17.46;37.43
7584;BME280;3833;41.764;26.204;2023-02-14T08:35:45;100118.66;;;16.90;36.06
7584;BME280;3833;41.764;26.204;2023-02-14T08:38:12;100113.97;;;13.84;38.69
7584;BME280;3833;41.764;26.204;2023-02-14T08:40:39;100142.81;;;16.21;36.64
7584;BME280;3833;41.764;26.204;2023-02-14T08:43:08;100138.59;;;15.53;36.55
7584;BME280;3833;41.764;26.204;2023-02-14T08:45:35;100062.34;;;15.78;36.95
7584;BME280;3833;41.764;26.204;2023-02-14T08:48:04;100145.00;;;17.76;35.00
7584;BME280;3833;41.764;26.204;2023-02-14T08:50:31;100143.41;;;15.73;37.29
7584;BME280;3833;41.764;26.204;2023-02-14T08:52:58;100139.56;;;15.38;37.89
7584;BME280;3833;41.764;26.204;2023-02-14T08:55:25;100120.56;;;16.39;35.88
7584;BME280;3833;41.764;26.204;2023-02-14T08:57:54;100145.66;;;17.06;35.88
7584;BME280;3833;41.764;26.204;2023-02-14T09:00:22;100050.81;;;15.40;37.92
7584;BME280;3833;41.764;26.204;2023-02-14T09:02:50;100133.03;;;15.84;38.59
7584;BME280;3833;41.764;26.204;2023-02-14T09:05:17;100136.91;;;15.52;38.85
7584;BME280;3833;41.764;26.204;2023-02-14T09:07:44;100132.88;;;18.08;34.51
7584;BME280;3833;41.764;26.204;2023-02-14T09:10:11;100102.28;;;15.04;37.95
7584;BME280;3833;41.764;26.204;2023-02-14T09:12:38;100067.44;;;14.86;38.65
7584;BME280;3833;41.764;26.204;2023-02-14T09:15:07;100113.81;;;16.47;38.84
7584;BME280;3833;41.764;26.204;2023-02-14T09:17:36;100007.66;;;15.16;38.33
7584;BME280;3833;41.764;26.204;2023-02-14T09:20:03;99935.25;;;13.59;41.45
7584;BME280;3833;41.764;26.204;2023-02-14T09:22:31;100094.84;;;14.82;40.81
7584;BME280;3833;41.764;26.204;2023-02-14T09:24:58;100095.63;;;14.13;42.46
7584;BME280;3833;41.764;26.204;2023-02-14T09:27:25;100095.41;;;15.01;41.04
7584;BME280;3833;41.764;26.204;2023-02-14T09:29:53;100057.47;;;15.72;39.15
7584;BME280;3833;41.764;26.204;2023-02-14T09:32:19;100086.97;;;17.98;37.08
7584;BME280;3833;41.764;26.204;2023-02-14T09:34:48;100068.84;;;14.50;40.46
7584;BME280;3833;41.764;26.204;2023-02-14T09:37:32;100086.16;;;13.66;41.69
7584;BME280;3833;41.764;26.204;2023-02-14T09:40:17;100076.66;;;14.52;41.51
7584;BME280;3833;41.764;26.204;2023-02-14T09:42:49;100083.19;;;15.14;40.98
7584;BME280;3833;41.764;26.204;2023-02-14T09:45:20;100053.59;;;13.39;42.94
7584;BME280;3833;41.764;26.204;2023-02-14T09:47:50;100088.66;;;13.07;45.17
7584;BME280;3833;41.764;26.204;2023-02-14T09:50:23;100086.84;;;12.28;45.17
7584;BME280;3833;41.764;26.204;2023-02-14T09:52:54;100083.81;;;11.14;46.90
7584;BME280;3833;41.764;26.204;2023-02-14T09:55:24;100081.75;;;11.74;46.35
7584;BME280;3833;41.764;26.204;2023-02-14T09:58:06;100080.97;;;12.23;44.98
7584;BME280;3833;41.764;26.204;2023-02-14T10:00:37;100065.56;;;12.17;46.51
7584;BME280;3833;41.764;26.204;2023-02-14T10:03:17;100065.38;;;11.87;46.51
7584;BME280;3833;41.764;26.204;2023-02-14T10:05:58;100069.50;;;11.57;45.36
7584;BME280;3833;41.764;26.204;2023-02-14T10:08:40;100053.16;;;11.52;45.31
7584;BME280;3833;41.764;26.204;2023-02-14T10:11:15;99961.09;;;11.46;44.43
7584;BME280;3833;41.764;26.204;2023-02-14T10:13:48;100045.28;;;12.05;44.09
7584;BME280;3833;41.764;26.204;2023-02-14T10:16:21;100041.91;;;11.86;44.57
7584;BME280;3833;41.764;26.204;2023-02-14T10:18:54;100030.97;;;12.59;44.15
7584;BME280;3833;41.764;26.204;2023-02-14T10:21:25;99994.50;;;12.72;42.81
7584;BME280;3833;41.764;26.204;2023-02-14T10:23:57;100030.69;;;12.81;43.41
7584;BME280;3833;41.764;26.204;2023-02-14T10:26:32;100032.81;;;11.59;45.34
7584;BME280;3833;41.764;26.204;2023-02-14T10:29:02;100027.28;;;12.31;44.85
7584;BME280;3833;41.764;26.204;2023-02-14T10:31:37;100022.50;;;11.21;47.31
7584;BME280;3833;41.764;26.204;2023-02-14T10:34:11;100026.31;;;10.22;48.85
7584;BME280;3833;41.764;26.204;2023-02-14T10:36:47;100022.47;;;9.70;49.59
7584;BME280;3833;41.764;26.204;2023-02-14T10:39:50;100002.31;;;9.94;49.63
7584;BME280;3833;41.764;26.204;2023-02-14T10:42:26;100005.03;;;9.91;50.62
7584;BME280;3833;41.764;26.204;2023-02-14T10:45:03;100000.72;;;10.30;50.95
7584;BME280;3833;41.764;26.204;2023-02-14T10:47:41;99987.31;;;10.19;49.93
7584;BME280;3833;41.764;26.204;2023-02-14T10:50:17;99994.13;;;10.21;50.88
7584;BME280;3833;41.764;26.204;2023-02-14T10:52:51;99972.47;;;10.39;50.98
7584;BME280;3833;41.764;26.204;2023-02-14T10:55:27;99989.66;;;10.25;51.84
7584;BME280;3833;41.764;26.204;2023-02-14T10:58:01;99978.66;;;10.36;51.30
7584;BME280;3833;41.764;26.204;2023-02-14T11:00:31;99985.78;;;10.33;51.29
7584;BME280;3833;41.764;26.204;2023-02-14T11:03:01;99983.03;;;10.54;49.85
7584;BME280;3833;41.764;26.204;2023-02-14T11:05:33;99974.81;;;10.80;49.72
7584;BME280;3833;41.764;26.204;2023-02-14T11:08:12;99966.44;;;10.19;50.35
7584;BME280;3833;41.764;26.204;2023-02-14T11:10:40;99976.59;;;10.25;50.29
7584;BME280;3833;41.764;26.204;2023-02-14T11:13:32;99982.09;;;9.99;50.13
7584;BME280;3833;41.764;26.204;2023-02-14T11:16:01;99974.22;;;10.00;51.08
7584;BME280;3833;41.764;26.204;2023-02-14T11:18:29;99955.94;;;10.38;50.47
7584;BME280;3833;41.764;26.204;2023-02-14T11:21:01;99964.38;;;10.07;49.91
7584;BME280;3833;41.764;26.204;2023-02-14T11:23:33;99957.78;;;10.18;50.03
7584;BME280;3833;41.764;26.204;2023-02-14T11:26:03;99955.53;;;10.47;48.35
7584;BME280;3833;41.764;26.204;2023-02-14T11:28:31;99962.41;;;9.92;49.35
7584;BME280;3833;41.764;26.204;2023-02-14T11:30:59;99948.44;;;10.13;48.45
7584;BME280;3833;41.764;26.204;2023-02-14T11:33:35;99926.88;;;10.09;48.73
7584;BME280;3833;41.764;26.204;2023-02-14T11:36:10;99947.81;;;10.08;48.27
7584;BME280;3833;41.764;26.204;2023-02-14T11:38:40;99939.03;;;10.29;49.10
7584;BME280;3833;41.764;26.204;2023-02-14T11:41:09;99931.66;;;10.36;49.62
7584;BME280;3833;41.764;26.204;2023-02-14T11:43:40;99928.00;;;10.04;49.70
7584;BME280;3833;41.764;26.204;2023-02-14T11:46:13;99924.63;;;10.38;48.73
7584;BME280;3833;41.764;26.204;2023-02-14T11:48:57;99923.91;;;10.53;49.00
7584;BME280;3833;41.764;26.204;2023-02-14T11:51:26;99922.69;;;10.60;47.86
7584;BME280;3833;41.764;26.204;2023-02-14T11:53:57;99911.41;;;10.95;47.13
7584;BME280;3833;41.764;26.204;2023-02-14T11:56:44;99913.81;;;10.64;47.80
7584;BME280;3833;41.764;26.204;2023-02-14T11:59:23;99906.41;;;10.55;48.54
7584;BME280;3833;41.764;26.204;2023-02-14T12:01:53;99916.69;;;10.58;47.80
7584;BME280;3833;41.764;26.204;2023-02-14T12:04:22;99823.47;;;9.70;48.68
7584;BME280;3833;41.764;26.204;2023-02-14T12:06:51;99904.28;;;10.63;47.70
7584;BME280;3833;41.764;26.204;2023-02-14T12:09:26;99886.31;;;10.74;48.01
7584;BME280;3833;41.764;26.204;2023-02-14T12:11:55;99887.84;;;10.97;47.94
7584;BME280;3833;41.764;26.204;2023-02-14T12:14:25;99894.53;;;10.67;48.37
7584;BME280;3833;41.764;26.204;2023-02-14T12:16:57;99895.66;;;10.80;48.60
7584;BME280;3833;41.764;26.204;2023-02-14T12:19:34;99888.75;;;10.60;47.59
7584;BME280;3833;41.764;26.204;2023-02-14T12:22:10;99887.66;;;10.47;47.27
7584;BME280;3833;41.764;26.204;2023-02-14T12:24:46;99891.41;;;10.77;47.66
7584;BME280;3833;41.764;26.204;2023-02-14T12:27:21;99886.66;;;10.85;46.29
7584;BME280;3833;41.764;26.204;2023-02-14T12:29:53;99878.19;;;10.63;48.39
7584;BME280;3833;41.764;26.204;2023-02-14T12:32:26;99872.69;;;10.51;46.95
7584;BME280;3833;41.764;26.204;2023-02-14T12:34:59;99873.84;;;10.45;47.42
7584;BME280;3833;41.764;26.204;2023-02-14T12:37:39;99865.88;;;10.48;49.42
7584;BME280;3833;41.764;26.204;2023-02-14T12:40:20;99864.19;;;10.64;47.67
7584;BME280;3833;41.764;26.204;2023-02-14T12:48:45;99854.19;;;10.55;50.86
7584;BME280;3833;41.764;26.204;2023-02-14T12:51:20;99849.06;;;10.71;48.10
7584;BME280;3833;41.764;26.204;2023-02-14T12:54:00;99847.00;;;10.42;48.92
7584;BME280;3833;41.764;26.204;2023-02-14T12:56:40;99812.78;;;10.13;49.02
7584;BME280;3833;41.764;26.204;2023-02-14T12:59:20;99828.69;;;10.43;48.96
7584;BME280;3833;41.764;26.204;2023-02-14T13:02:01;99857.44;;;10.42;48.11
7584;BME280;3833;41.764;26.204;2023-02-14T13:04:48;99854.75;;;10.27;47.94
7584;BME280;3833;41.764;26.204;2023-02-14T13:07:27;99854.00;;;10.41;47.46
7584;BME280;3833;41.764;26.204;2023-02-14T13:10:11;99852.09;;;10.45;46.13
7584;BME280;3833;41.764;26.204;2023-02-14T13:12:45;99839.28;;;10.40;47.54
7584;BME280;3833;41.764;26.204;2023-02-14T13:15:22;99853.50;;;10.33;46.60
7584;BME280;3833;41.764;26.204;2023-02-14T13:17:54;99851.00;;;10.14;46.87
7584;BME280;3833;41.764;26.204;2023-02-14T13:20:37;99853.25;;;10.39;47.43
7584;BME280;3833;41.764;26.204;2023-02-14T13:23:12;99850.13;;;10.32;47.22
7584;BME280;3833;41.764;26.204;2023-02-14T13:25:42;99851.81;;;10.32;46.76
7584;BME280;3833;41.764;26.204;2023-02-14T13:28:17;99848.88;;;10.22;46.46
7584;BME280;3833;41.764;26.204;2023-02-14T13:30:45;99757.75;;;9.82;47.53
7584;BME280;3833;41.764;26.204;2023-02-14T13:33:27;99836.31;;;10.30;47.87